sensor_id;sensor_type;location;lat;lon;timestamp;temperature;humidity
20463;DHT22;10390;53.566;9.980;2023-02-17T00:00:26;23.60;1.00
20463;DHT22;10390;53.566;9.980;2023-02-17T00:02:56;23.60;1.00
20463;DHT22;10390;53.566;9.980;2023-02-17T00:05:23;23.60;1.00
20463;DHT22;10390;53.566;9.980;2023-02-17T00:07:48;23.60;1.00
20463;DHT22;10390;53.566;9.980;2023-02-17T00:10:14;23.60;1.00
20463;DHT22;10390;53.566;9.980;2023-02-17T00:12:40;23.60;1.00
20463;DHT22;10390;53.566;9.980;2023-02-17T00:15:06;23.60;1.00
20463;DHT22;10390;53.566;9.980;2023-02-17T00:17:31;23.60;1.00
20463;DHT22;10390;53.566;9.980;2023-02-17T00:19:57;23.60;1.00
20463;DHT22;10390;53.566;9.980;2023-02-17T00:22:23;23.60;1.00
20463;DHT22;10390;53.566;9.980;2023-02-17T00:24:49;23.60;1.00
20463;DHT22;10390;53.566;9.980;2023-02-17T00:27:14;23.50;1.00
20463;DHT22;10390;53.566;9.980;2023-02-17T00:29:40;23.60;1.00
20463;DHT22;10390;53.566;9.980;2023-02-17T00:32:06;23.50;1.00
20463;DHT22;10390;53.566;9.980;2023-02-17T00:34:34;23.50;1.00
20463;DHT22;10390;53.566;9.980;2023-02-17T00:37:00;23.40;1.00
20463;DHT22;10390;53.566;9.980;2023-02-17T00:39:25;23.40;1.00
20463;DHT22;10390;53.566;9.980;2023-02-17T00:41:51;23.40;1.00
20463;DHT22;10390;53.566;9.980;2023-02-17T00:44:21;23.30;1.00
20463;DHT22;10390;53.566;9.980;2023-02-17T00:46:48;23.30;1.00
20463;DHT22;10390;53.566;9.980;2023-02-17T00:49:19;23.20;1.00
20463;DHT22;10390;53.566;9.980;2023-02-17T00:51:45;23.20;1.00
20463;DHT22;10390;53.566;9.980;2023-02-17T00:54:12;23.20;1.00
20463;DHT22;10390;53.566;9.980;2023-02-17T00:56:38;23.20;1.00
20463;DHT22;10390;53.566;9.980;2023-02-17T00:59:04;23.20;1.00
20463;DHT22;10390;53.566;9.980;2023-02-17T01:01:30;23.20;1.00
20463;DHT22;10390;53.566;9.980;2023-02-17T01:03:56;23.20;1.00
20463;DHT22;10390;53.566;9.980;2023-02-17T01:06:24;23.20;1.00
20463;DHT22;10390;53.566;9.980;2023-02-17T01:08:50;23.30;1.00
20463;DHT22;10390;53.566;9.980;2023-02-17T01:11:20;23.30;1.00
20463;DHT22;10390;53.566;9.980;2023-02-17T01:13:46;23.30;1.00
20463;DHT22;10390;53.566;9.980;2023-02-17T01:16:28;23.30;1.00
20463;DHT22;10390;53.566;9.980;2023-02-17T01:18:55;23.30;1.00
20463;DHT22;10390;53.566;9.980;2023-02-17T01:21:23;23.30;1.00
20463;DHT22;10390;53.566;9.980;2023-02-17T01:23:55;23.30;1.00
20463;DHT22;10390;53.566;9.980;2023-02-17T01:26:24;23.40;1.00
20463;DHT22;10390;53.566;9.980;2023-02-17T01:28:51;23.40;1.00
20463;DHT22;10390;53.566;9.980;2023-02-17T01:31:18;23.40;1.00
20463;DHT22;10390;53.566;9.980;2023-02-17T01:33:43;23.40;1.00
20463;DHT22;10390;53.566;9.980;2023-02-17T01:36:11;23.40;1.00
20463;DHT22;10390;53.566;9.980;2023-02-17T01:38:37;23.40;1.00
20463;DHT22;10390;53.566;9.980;2023-02-17T01:41:03;23.40;1.00
20463;DHT22;10390;53.566;9.980;2023-02-17T01:43:29;23.40;1.00
20463;DHT22;10390;53.566;9.980;2023-02-17T01:45:57;23.40;1.00
20463;DHT22;10390;53.566;9.980;2023-02-17T01:48:29;23.40;1.00
20463;DHT22;10390;53.566;9.980;2023-02-17T01:51:01;23.40;1.00
20463;DHT22;10390;53.566;9.980;2023-02-17T01:53:32;23.40;1.00
20463;DHT22;10390;53.566;9.980;2023-02-17T01:56:00;23.40;1.00
20463;DHT22;10390;53.566;9.980;2023-02-17T01:58:26;23.40;1.00
20463;DHT22;10390;53.566;9.980;2023-02-17T02:00:54;23.40;1.00
20463;DHT22;10390;53.566;9.980;2023-02-17T02:03:20;23.40;1.00
20463;DHT22;10390;53.566;9.980;2023-02-17T02:05:46;23.40;1.00
20463;DHT22;10390;53.566;9.980;2023-02-17T02:08:12;23.40;1.00
20463;DHT22;10390;53.566;9.980;2023-02-17T02:10:39;23.30;1.00
20463;DHT22;10390;53.566;9.980;2023-02-17T02:13:06;23.30;1.00
20463;DHT22;10390;53.566;9.980;2023-02-17T02:15:50;23.30;1.00
20463;DHT22;10390;53.566;9.980;2023-02-17T02:18:44;23.20;1.00
20463;DHT22;10390;53.566;9.980;2023-02-17T02:24:24;23.20;1.00
20463;DHT22;10390;53.566;9.980;2023-02-17T02:29:42;23.20;1.00
20463;DHT22;10390;53.566;9.980;2023-02-17T02:35:01;23.20;1.00
20463;DHT22;10390;53.566;9.980;2023-02-17T02:37:37;23.20;1.00
20463;DHT22;10390;53.566;9.980;2023-02-17T02:40:06;23.20;1.00
20463;DHT22;10390;53.566;9.980;2023-02-17T02:42:33;23.20;1.00
20463;DHT22;10390;53.566;9.980;2023-02-17T02:44:59;23.30;1.00
20463;DHT22;10390;53.566;9.980;2023-02-17T02:50:14;23.30;1.00
20463;DHT22;10390;53.566;9.980;2023-02-17T03:01:20;23.40;1.00
20463;DHT22;10390;53.566;9.980;2023-02-17T03:06:14;23.40;1.00
20463;DHT22;10390;53.566;9.980;2023-02-17T03:08:47;23.40;1.00
20463;DHT22;10390;53.566;9.980;2023-02-17T03:11:15;23.40;1.00
20463;DHT22;10390;53.566;9.980;2023-02-17T03:13:59;23.40;1.00
20463;DHT22;10390;53.566;9.980;2023-02-17T03:16:25;23.40;1.00
20463;DHT22;10390;53.566;9.980;2023-02-17T03:18:51;23.40;1.00
20463;DHT22;10390;53.566;9.980;2023-02-17T03:21:17;23.40;1.00
20463;DHT22;10390;53.566;9.980;2023-02-17T03:23:43;23.40;1.00
20463;DHT22;10390;53.566;9.980;2023-02-17T03:26:09;23.40;1.00
20463;DHT22;10390;53.566;9.980;2023-02-17T03:28:34;23.40;1.00
20463;DHT22;10390;53.566;9.980;2023-02-17T03:31:00;23.40;1.00
20463;DHT22;10390;53.566;9.980;2023-02-17T03:33:25;23.40;1.00
20463;DHT22;10390;53.566;9.980;2023-02-17T03:35:51;23.40;1.00
20463;DHT22;10390;53.566;9.980;2023-02-17T03:38:17;23.40;1.00
20463;DHT22;10390;53.566;9.980;2023-02-17T03:40:42;23.30;1.00
20463;DHT22;10390;53.566;9.980;2023-02-17T03:43:08;23.30;1.00
20463;DHT22;10390;53.566;9.980;2023-02-17T03:45:36;23.20;1.00
20463;DHT22;10390;53.566;9.980;2023-02-17T03:48:03;23.20;1.00
20463;DHT22;10390;53.566;9.980;2023-02-17T03:50:29;23.20;1.00
20463;DHT22;10390;53.566;9.980;2023-02-17T03:52:55;23.20;1.00
20463;DHT22;10390;53.566;9.980;2023-02-17T03:55:20;23.20;1.00
20463;DHT22;10390;53.566;9.980;2023-02-17T03:57:46;23.20;1.00
20463;DHT22;10390;53.566;9.980;2023-02-17T04:00:12;23.20;1.00
20463;DHT22;10390;53.566;9.980;2023-02-17T04:02:37;23.20;1.00
20463;DHT22;10390;53.566;9.980;2023-02-17T04:05:03;23.20;1.00
20463;DHT22;10390;53.566;9.980;2023-02-17T04:07:29;23.20;1.00
20463;DHT22;10390;53.566;9.980;2023-02-17T04:09:54;23.20;1.00
20463;DHT22;10390;53.566;9.980;2023-02-17T04:12:20;23.20;1.00
20463;DHT22;10390;53.566;9.980;2023-02-17T04:14:45;23.30;1.00
20463;DHT22;10390;53.566;9.980;2023-02-17T04:17:11;23.30;1.00
20463;DHT22;10390;53.566;9.980;2023-02-17T04:19:37;23.30;1.00
20463;DHT22;10390;53.566;9.980;2023-02-17T04:22:02;23.30;1.00
20463;DHT22;10390;53.566;9.980;2023-02-17T04:24:29;23.30;1.00
20463;DHT22;10390;53.566;9.980;2023-02-17T04:26:54;23.30;1.00
20463;DHT22;10390;53.566;9.980;2023-02-17T04:29:20;23.40;1.00
20463;DHT22;10390;53.566;9.980;2023-02-17T04:31:45;23.40;1.00
20463;DHT22;10390;53.566;9.980;2023-02-17T04:34:11;23.40;1.00
20463;DHT22;10390;53.566;9.980;2023-02-17T04:36:37;23.40;1.00
20463;DHT22;10390;53.566;9.980;2023-02-17T04:39:02;23.40;1.00
20463;DHT22;10390;53.566;9.980;2023-02-17T04:41:28;23.40;1.00
20463;DHT22;10390;53.566;9.980;2023-02-17T04:43:53;23.40;1.00
20463;DHT22;10390;53.566;9.980;2023-02-17T04:46:19;23.40;1.00
20463;DHT22;10390;53.566;9.980;2023-02-17T04:48:45;23.40;1.00
20463;DHT22;10390;53.566;9.980;2023-02-17T04:51:10;23.40;1.00
20463;DHT22;10390;53.566;9.980;2023-02-17T04:53:36;23.40;1.00
20463;DHT22;10390;53.566;9.980;2023-02-17T04:56:01;23.40;1.00
20463;DHT22;10390;53.566;9.980;2023-02-17T04:58:27;23.40;1.00
20463;DHT22;10390;53.566;9.980;2023-02-17T05:00:53;23.40;1.00
20463;DHT22;10390;53.566;9.980;2023-02-17T05:03:19;23.40;1.00
20463;DHT22;10390;53.566;9.980;2023-02-17T05:05:44;23.30;1.00
20463;DHT22;10390;53.566;9.980;2023-02-17T05:08:10;23.30;1.00
20463;DHT22;10390;53.566;9.980;2023-02-17T05:10:35;23.30;1.00
20463;DHT22;10390;53.566;9.980;2023-02-17T05:13:01;23.20;1.00
20463;DHT22;10390;53.566;9.980;2023-02-17T05:15:27;23.20;1.00
20463;DHT22;10390;53.566;9.980;2023-02-17T05:17:52;23.20;1.00
20463;DHT22;10390;53.566;9.980;2023-02-17T05:20:18;23.20;1.00
20463;DHT22;10390;53.566;9.980;2023-02-17T05:22:43;23.20;1.00
20463;DHT22;10390;53.566;9.980;2023-02-17T05:25:09;23.20;1.00
20463;DHT22;10390;53.566;9.980;2023-02-17T05:27:35;23.20;1.00
20463;DHT22;10390;53.566;9.980;2023-02-17T05:30:00;23.20;1.00
20463;DHT22;10390;53.566;9.980;2023-02-17T05:32:26;23.20;1.00
20463;DHT22;10390;53.566;9.980;2023-02-17T05:34:52;23.20;1.00
20463;DHT22;10390;53.566;9.980;2023-02-17T05:37:17;23.30;1.00
20463;DHT22;10390;53.566;9.980;2023-02-17T05:39:43;23.20;1.00
20463;DHT22;10390;53.566;9.980;2023-02-17T05:42:08;23.30;1.00
20463;DHT22;10390;53.566;9.980;2023-02-17T05:44:34;23.30;1.00
20463;DHT22;10390;53.566;9.980;2023-02-17T05:47:00;23.30;1.00
20463;DHT22;10390;53.566;9.980;2023-02-17T05:49:25;23.30;1.00
20463;DHT22;10390;53.566;9.980;2023-02-17T05:51:51;23.30;1.00
20463;DHT22;10390;53.566;9.980;2023-02-17T05:54:17;23.40;1.00
20463;DHT22;10390;53.566;9.980;2023-02-17T05:56:42;23.40;1.00
20463;DHT22;10390;53.566;9.980;2023-02-17T05:59:08;23.40;1.00
20463;DHT22;10390;53.566;9.980;2023-02-17T06:01:33;23.40;1.00
20463;DHT22;10390;53.566;9.980;2023-02-17T06:03:59;23.40;1.00
20463;DHT22;10390;53.566;9.980;2023-02-17T06:06:25;23.40;1.00
20463;DHT22;10390;53.566;9.980;2023-02-17T06:08:50;23.40;1.00
20463;DHT22;10390;53.566;9.980;2023-02-17T06:11:16;23.40;1.00
20463;DHT22;10390;53.566;9.980;2023-02-17T06:13:42;23.40;1.00
20463;DHT22;10390;53.566;9.980;2023-02-17T06:16:07;23.40;1.00
20463;DHT22;10390;53.566;9.980;2023-02-17T06:18:33;23.40;1.00
20463;DHT22;10390;53.566;9.980;2023-02-17T06:20:59;23.40;1.00
20463;DHT22;10390;53.566;9.980;2023-02-17T06:23:25;23.40;1.00
20463;DHT22;10390;53.566;9.980;2023-02-17T06:25:51;23.40;1.00
20463;DHT22;10390;53.566;9.980;2023-02-17T06:28:17;23.40;1.00
20463;DHT22;10390;53.566;9.980;2023-02-17T06:30:43;23.30;1.00
20463;DHT22;10390;53.566;9.980;2023-02-17T06:33:08;23.30;1.00
20463;DHT22;10390;53.566;9.980;2023-02-17T06:35:34;23.20;1.00
20463;DHT22;10390;53.566;9.980;2023-02-17T06:38:00;23.30;1.00
20463;DHT22;10390;53.566;9.980;2023-02-17T06:40:25;23.20;1.00
20463;DHT22;10390;53.566;9.980;2023-02-17T06:42:51;23.20;1.00
20463;DHT22;10390;53.566;9.980;2023-02-17T06:45:17;23.20;1.00
20463;DHT22;10390;53.566;9.980;2023-02-17T06:47:42;23.20;1.00
20463;DHT22;10390;53.566;9.980;2023-02-17T06:50:09;23.20;1.00
20463;DHT22;10390;53.566;9.980;2023-02-17T06:52:35;23.20;1.00
20463;DHT22;10390;53.566;9.980;2023-02-17T06:55:01;23.20;1.00
20463;DHT22;10390;53.566;9.980;2023-02-17T06:57:26;23.30;1.00
20463;DHT22;10390;53.566;9.980;2023-02-17T06:59:52;23.30;1.00
20463;DHT22;10390;53.566;9.980;2023-02-17T07:02:18;23.30;1.00
20463;DHT22;10390;53.566;9.980;2023-02-17T07:04:43;23.30;1.00
20463;DHT22;10390;53.566;9.980;2023-02-17T07:07:10;23.30;1.00
20463;DHT22;10390;53.566;9.980;2023-02-17T07:09:36;23.40;1.00
20463;DHT22;10390;53.566;9.980;2023-02-17T07:12:01;23.40;1.00
20463;DHT22;10390;53.566;9.980;2023-02-17T07:14:27;23.40;1.00
20463;DHT22;10390;53.566;9.980;2023-02-17T07:16:53;23.40;1.00
20463;DHT22;10390;53.566;9.980;2023-02-17T07:19:19;23.40;1.00
20463;DHT22;10390;53.566;9.980;2023-02-17T07:21:45;23.50;1.00
20463;DHT22;10390;53.566;9.980;2023-02-17T07:24:10;23.50;1.00
20463;DHT22;10390;53.566;9.980;2023-02-17T07:26:37;23.50;1.00
20463;DHT22;10390;53.566;9.980;2023-02-17T07:29:04;23.50;1.00
20463;DHT22;10390;53.566;9.980;2023-02-17T07:31:30;23.50;1.00
20463;DHT22;10390;53.566;9.980;2023-02-17T07:33:56;23.50;1.00
20463;DHT22;10390;53.566;9.980;2023-02-17T07:36:22;23.50;1.00
20463;DHT22;10390;53.566;9.980;2023-02-17T07:38:48;23.50;1.00
20463;DHT22;10390;53.566;9.980;2023-02-17T07:41:19;23.60;1.00
20463;DHT22;10390;53.566;9.980;2023-02-17T07:43:46;23.50;1.00
20463;DHT22;10390;53.566;9.980;2023-02-17T07:46:12;23.50;1.00
20463;DHT22;10390;53.566;9.980;2023-02-17T07:48:38;23.50;1.00
20463;DHT22;10390;53.566;9.980;2023-02-17T07:51:08;23.50;1.00
20463;DHT22;10390;53.566;9.980;2023-02-17T07:53:35;23.50;1.00
20463;DHT22;10390;53.566;9.980;2023-02-17T07:56:06;23.40;1.00
20463;DHT22;10390;53.566;9.980;2023-02-17T07:58:32;23.40;1.00
20463;DHT22;10390;53.566;9.980;2023-02-17T08:01:20;23.40;1.00
20463;DHT22;10390;53.566;9.980;2023-02-17T08:03:47;23.30;1.00
20463;DHT22;10390;53.566;9.980;2023-02-17T08:06:17;23.30;1.00
20463;DHT22;10390;53.566;9.980;2023-02-17T08:08:43;23.30;1.00
20463;DHT22;10390;53.566;9.980;2023-02-17T08:11:28;23.30;1.00
20463;DHT22;10390;53.566;9.980;2023-02-17T08:14:13;23.30;1.00
20463;DHT22;10390;53.566;9.980;2023-02-17T08:16:39;23.30;1.00
20463;DHT22;10390;53.566;9.980;2023-02-17T08:19:05;23.30;1.00
20463;DHT22;10390;53.566;9.980;2023-02-17T08:21:31;23.30;1.00
20463;DHT22;10390;53.566;9.980;2023-02-17T08:23:57;23.30;1.00
20463;DHT22;10390;53.566;9.980;2023-02-17T08:26:23;23.30;1.00
20463;DHT22;10390;53.566;9.980;2023-02-17T08:28:49;23.30;1.00
20463;DHT22;10390;53.566;9.980;2023-02-17T08:31:26;23.30;1.00
20463;DHT22;10390;53.566;9.980;2023-02-17T08:33:53;23.40;1.00
20463;DHT22;10390;53.566;9.980;2023-02-17T08:36:19;23.40;1.00
20463;DHT22;10390;53.566;9.980;2023-02-17T08:38:47;23.40;1.00
20463;DHT22;10390;53.566;9.980;2023-02-17T08:41:23;23.40;1.00
20463;DHT22;10390;53.566;9.980;2023-02-17T08:43:50;23.40;1.00
20463;DHT22;10390;53.566;9.980;2023-02-17T08:46:16;23.40;1.00
20463;DHT22;10390;53.566;9.980;2023-02-17T08:48:43;23.40;1.00
20463;DHT22;10390;53.566;9.980;2023-02-17T08:51:17;23.50;1.00
20463;DHT22;10390;53.566;9.980;2023-02-17T08:53:51;23.50;1.00
20463;DHT22;10390;53.566;9.980;2023-02-17T08:56:18;23.50;1.00
20463;DHT22;10390;53.566;9.980;2023-02-17T08:58:44;23.50;1.00
20463;DHT22;10390;53.566;9.980;2023-02-17T09:01:10;23.50;1.00
20463;DHT22;10390;53.566;9.980;2023-02-17T09:03:37;23.50;1.00
20463;DHT22;10390;53.566;9.980;2023-02-17T09:06:04;23.40;1.00
20463;DHT22;10390;53.566;9.980;2023-02-17T09:08:30;23.50;1.00
20463;DHT22;10390;53.566;9.980;2023-02-17T09:10:56;23.50;1.00
20463;DHT22;10390;53.566;9.980;2023-02-17T09:13:22;23.40;1.00
20463;DHT22;10390;53.566;9.980;2023-02-17T09:15:47;23.40;1.00
20463;DHT22;10390;53.566;9.980;2023-02-17T09:18:14;23.40;1.00
20463;DHT22;10390;53.566;9.980;2023-02-17T09:20:39;23.40;1.00
20463;DHT22;10390;53.566;9.980;2023-02-17T09:23:05;23.30;1.00
20463;DHT22;10390;53.566;9.980;2023-02-17T09:25:32;23.30;1.00
20463;DHT22;10390;53.566;9.980;2023-02-17T09:27:57;23.30;1.00
20463;DHT22;10390;53.566;9.980;2023-02-17T09:30:23;23.20;1.00
20463;DHT22;10390;53.566;9.980;2023-02-17T09:32:49;23.20;1.00
20463;DHT22;10390;53.566;9.980;2023-02-17T09:35:16;23.20;1.00
20463;DHT22;10390;53.566;9.980;2023-02-17T09:37:42;23.20;1.00
20463;DHT22;10390;53.566;9.980;2023-02-17T09:40:19;23.20;1.00
20463;DHT22;10390;53.566;9.980;2023-02-17T09:42:45;23.20;1.00
20463;DHT22;10390;53.566;9.980;2023-02-17T09:45:18;23.30;1.00
20463;DHT22;10390;53.566;9.980;2023-02-17T09:47:54;23.30;1.00
20463;DHT22;10390;53.566;9.980;2023-02-17T09:50:25;23.30;1.00
20463;DHT22;10390;53.566;9.980;2023-02-17T09:52:57;23.30;1.00
20463;DHT22;10390;53.566;9.980;2023-02-17T09:55:31;23.30;1.00
20463;DHT22;10390;53.566;9.980;2023-02-17T09:58:22;23.40;1.00
20463;DHT22;10390;53.566;9.980;2023-02-17T10:00:50;23.40;1.00
20463;DHT22;10390;53.566;9.980;2023-02-17T10:06:12;23.40;1.00
20463;DHT22;10390;53.566;9.980;2023-02-17T10:11:31;23.40;1.00
20463;DHT22;10390;53.566;9.980;2023-02-17T10:14:06;23.40;1.00
20463;DHT22;10390;53.566;9.980;2023-02-17T10:16:59;23.40;1.00
20463;DHT22;10390;53.566;9.980;2023-02-17T10:19:38;23.40;1.00
20463;DHT22;10390;53.566;9.980;2023-02-17T10:22:13;23.40;1.00
20463;DHT22;10390;53.566;9.980;2023-02-17T10:24:40;23.40;1.00
20463;DHT22;10390;53.566;9.980;2023-02-17T10:37:34;23.40;1.00
20463;DHT22;10390;53.566;9.980;2023-02-17T10:40:06;23.40;1.00
20463;DHT22;10390;53.566;9.980;2023-02-17T10:42:36;23.40;1.00
20463;DHT22;10390;53.566;9.980;2023-02-17T10:45:05;23.30;1.00
20463;DHT22;10390;53.566;9.980;2023-02-17T10:47:35;23.30;1.00
20463;DHT22;10390;53.566;9.980;2023-02-17T10:50:02;23.30;1.00
20463;DHT22;10390;53.566;9.980;2023-02-17T10:52:37;23.20;1.00
20463;DHT22;10390;53.566;9.980;2023-02-17T10:55:07;23.20;1.00
20463;DHT22;10390;53.566;9.980;2023-02-17T10:57:38;23.20;1.00
20463;DHT22;10390;53.566;9.980;2023-02-17T11:00:06;23.20;1.00
20463;DHT22;10390;53.566;9.980;2023-02-17T11:02:43;23.20;1.00
20463;DHT22;10390;53.566;9.980;2023-02-17T11:05:29;23.20;1.00
20463;DHT22;10390;53.566;9.980;2023-02-17T11:08:07;23.20;1.00
20463;DHT22;10390;53.566;9.980;2023-02-17T11:10:42;23.20;1.00
20463;DHT22;10390;53.566;9.980;2023-02-17T11:13:59;23.30;1.00
20463;DHT22;10390;53.566;9.980;2023-02-17T11:16:46;23.20;1.00
20463;DHT22;10390;53.566;9.980;2023-02-17T11:19:33;23.30;1.00
20463;DHT22;10390;53.566;9.980;2023-02-17T11:22:02;23.30;1.00
20463;DHT22;10390;53.566;9.980;2023-02-17T11:24:31;23.30;1.00
20463;DHT22;10390;53.566;9.980;2023-02-17T11:27:00;23.30;1.00
20463;DHT22;10390;53.566;9.980;2023-02-17T11:29:26;23.40;1.00
20463;DHT22;10390;53.566;9.980;2023-02-17T11:31:58;23.40;1.00
20463;DHT22;10390;53.566;9.980;2023-02-17T11:34:27;23.40;1.00
20463;DHT22;10390;53.566;9.980;2023-02-17T11:37:25;23.40;1.00
20463;DHT22;10390;53.566;9.980;2023-02-17T11:39:54;23.40;1.00
20463;DHT22;10390;53.566;9.980;2023-02-17T11:42:31;23.40;1.00
20463;DHT22;10390;53.566;9.980;2023-02-17T11:44:59;23.40;1.00
20463;DHT22;10390;53.566;9.980;2023-02-17T11:47:45;23.50;1.00
20463;DHT22;10390;53.566;9.980;2023-02-17T11:56:14;23.40;1.00
20463;DHT22;10390;53.566;9.980;2023-02-17T12:06:56;23.40;1.00
20463;DHT22;10390;53.566;9.980;2023-02-17T12:24:42;23.20;1.00
20463;DHT22;10390;53.566;9.980;2023-02-17T12:29:55;23.20;1.00
20463;DHT22;10390;53.566;9.980;2023-02-17T12:35:21;23.30;1.00
20463;DHT22;10390;53.566;9.980;2023-02-17T12:37:51;23.40;1.00
20463;DHT22;10390;53.566;9.980;2023-02-17T12:43:35;23.60;1.00
20463;DHT22;10390;53.566;9.980;2023-02-17T12:46:06;23.60;1.00
20463;DHT22;10390;53.566;9.980;2023-02-17T12:48:47;23.70;1.00
20463;DHT22;10390;53.566;9.980;2023-02-17T12:51:25;23.70;1.00
20463;DHT22;10390;53.566;9.980;2023-02-17T12:54:09;23.80;1.00
20463;DHT22;10390;53.566;9.980;2023-02-17T12:59:32;23.90;1.00
20463;DHT22;10390;53.566;9.980;2023-02-17T13:02:12;23.90;1.00
20463;DHT22;10390;53.566;9.980;2023-02-17T13:04:40;24.00;1.00
20463;DHT22;10390;53.566;9.980;2023-02-17T13:07:41;24.10;1.00
20463;DHT22;10390;53.566;9.980;2023-02-17T13:10:19;24.10;1.00
20463;DHT22;10390;53.566;9.980;2023-02-17T13:13:11;24.20;1.00
20463;DHT22;10390;53.566;9.980;2023-02-17T13:15:44;24.20;1.00
20463;DHT22;10390;53.566;9.980;2023-02-17T13:18:31;24.30;1.00
20463;DHT22;10390;53.566;9.980;2023-02-17T13:23:43;24.30;1.00
20463;DHT22;10390;53.566;9.980;2023-02-17T13:28:45;24.40;1.00
20463;DHT22;10390;53.566;9.980;2023-02-17T13:31:18;24.40;1.00
20463;DHT22;10390;53.566;9.980;2023-02-17T13:33:50;24.40;1.00
20463;DHT22;10390;53.566;9.980;2023-02-17T13:36:36;24.50;1.00
20463;DHT22;10390;53.566;9.980;2023-02-17T13:41:51;24.60;1.00
20463;DHT22;10390;53.566;9.980;2023-02-17T13:44:38;24.70;1.00
20463;DHT22;10390;53.566;9.980;2023-02-17T13:47:14;24.90;1.00
20463;DHT22;10390;53.566;9.980;2023-02-17T13:49:41;25.00;1.00
20463;DHT22;10390;53.566;9.980;2023-02-17T13:52:17;25.10;1.00
20463;DHT22;10390;53.566;9.980;2023-02-17T13:54:58;25.30;1.00
20463;DHT22;10390;53.566;9.980;2023-02-17T13:57:29;25.50;1.00
20463;DHT22;10390;53.566;9.980;2023-02-17T14:02:36;25.70;1.00
20463;DHT22;10390;53.566;9.980;2023-02-17T14:05:37;25.90;1.00
20463;DHT22;10390;53.566;9.980;2023-02-17T14:08:19;25.90;1.00
20463;DHT22;10390;53.566;9.980;2023-02-17T14:10:47;26.10;1.00
20463;DHT22;10390;53.566;9.980;2023-02-17T14:13:13;26.10;1.00
20463;DHT22;10390;53.566;9.980;2023-02-17T14:15:56;26.30;1.00
20463;DHT22;10390;53.566;9.980;2023-02-17T14:23:40;26.60;1.00
20463;DHT22;10390;53.566;9.980;2023-02-17T14:26:12;26.70;1.00
20463;DHT22;10390;53.566;9.980;2023-02-17T14:28:38;26.80;1.00
20463;DHT22;10390;53.566;9.980;2023-02-17T14:31:10;26.90;1.00
20463;DHT22;10390;53.566;9.980;2023-02-17T14:33:36;26.90;1.00
20463;DHT22;10390;53.566;9.980;2023-02-17T14:36:04;27.00;1.00
20463;DHT22;10390;53.566;9.980;2023-02-17T14:38:35;27.00;1.00
20463;DHT22;10390;53.566;9.980;2023-02-17T14:41:02;27.00;1.00
20463;DHT22;10390;53.566;9.980;2023-02-17T14:43:28;27.00;1.00
20463;DHT22;10390;53.566;9.980;2023-02-17T14:45:54;27.00;1.00
20463;DHT22;10390;53.566;9.980;2023-02-17T14:48:19;27.00;1.00
20463;DHT22;10390;53.566;9.980;2023-02-17T14:50:46;27.00;1.00
20463;DHT22;10390;53.566;9.980;2023-02-17T14:53:20;27.00;1.00
20463;DHT22;10390;53.566;9.980;2023-02-17T14:55:51;27.00;1.00
20463;DHT22;10390;53.566;9.980;2023-02-17T14:58:22;27.00;1.00
20463;DHT22;10390;53.566;9.980;2023-02-17T15:00:49;26.90;1.00
20463;DHT22;10390;53.566;9.980;2023-02-17T15:03:15;26.90;1.00
20463;DHT22;10390;53.566;9.980;2023-02-17T15:05:40;26.90;1.00
20463;DHT22;10390;53.566;9.980;2023-02-17T15:08:10;27.00;1.00
20463;DHT22;10390;53.566;9.980;2023-02-17T15:10:37;27.00;1.00
20463;DHT22;10390;53.566;9.980;2023-02-17T15:13:05;27.00;1.00
20463;DHT22;10390;53.566;9.980;2023-02-17T15:15:30;27.00;1.00
20463;DHT22;10390;53.566;9.980;2023-02-17T15:17:56;27.00;1.00
20463;DHT22;10390;53.566;9.980;2023-02-17T15:20:22;26.90;1.00
20463;DHT22;10390;53.566;9.980;2023-02-17T15:22:48;26.90;1.00
20463;DHT22;10390;53.566;9.980;2023-02-17T15:25:19;26.90;1.00
20463;DHT22;10390;53.566;9.980;2023-02-17T15:27:47;26.80;1.00
20463;DHT22;10390;53.566;9.980;2023-02-17T15:30:16;26.80;1.00
20463;DHT22;10390;53.566;9.980;2023-02-17T15:32:42;26.60;1.00
20463;DHT22;10390;53.566;9.980;2023-02-17T15:35:24;26.50;1.00
20463;DHT22;10390;53.566;9.980;2023-02-17T15:37:51;26.40;1.00
20463;DHT22;10390;53.566;9.980;2023-02-17T15:40:22;26.40;1.00
20463;DHT22;10390;53.566;9.980;2023-02-17T15:42:52;26.30;1.00
20463;DHT22;10390;53.566;9.980;2023-02-17T15:45:19;26.20;1.00
20463;DHT22;10390;53.566;9.980;2023-02-17T15:47:49;26.10;1.00
20463;DHT22;10390;53.566;9.980;2023-02-17T15:50:20;26.00;1.00
20463;DHT22;10390;53.566;9.980;2023-02-17T15:52:48;25.90;1.00
20463;DHT22;10390;53.566;9.980;2023-02-17T15:55:15;25.90;1.00
20463;DHT22;10390;53.566;9.980;2023-02-17T15:57:49;25.90;1.00
20463;DHT22;10390;53.566;9.980;2023-02-17T16:02:47;25.80;1.00
20463;DHT22;10390;53.566;9.980;2023-02-17T16:05:15;25.70;1.00
20463;DHT22;10390;53.566;9.980;2023-02-17T16:07:41;25.60;1.00
20463;DHT22;10390;53.566;9.980;2023-02-17T16:10:08;25.50;1.00
20463;DHT22;10390;53.566;9.980;2023-02-17T16:12:35;25.50;1.00
20463;DHT22;10390;53.566;9.980;2023-02-17T16:15:00;25.50;1.00
20463;DHT22;10390;53.566;9.980;2023-02-17T16:17:26;25.40;1.00
20463;DHT22;10390;53.566;9.980;2023-02-17T16:19:52;25.40;1.00
20463;DHT22;10390;53.566;9.980;2023-02-17T16:22:17;25.30;1.00
20463;DHT22;10390;53.566;9.980;2023-02-17T16:24:43;25.30;1.00
20463;DHT22;10390;53.566;9.980;2023-02-17T16:27:13;25.30;1.00
20463;DHT22;10390;53.566;9.980;2023-02-17T16:29:40;25.20;1.00
20463;DHT22;10390;53.566;9.980;2023-02-17T16:32:06;25.20;1.00
20463;DHT22;10390;53.566;9.980;2023-02-17T16:34:31;25.10;1.00
20463;DHT22;10390;53.566;9.980;2023-02-17T16:37:01;25.10;1.00
20463;DHT22;10390;53.566;9.980;2023-02-17T16:39:28;25.10;1.00
20463;DHT22;10390;53.566;9.980;2023-02-17T16:41:54;24.90;1.00
20463;DHT22;10390;53.566;9.980;2023-02-17T16:44:21;24.90;1.00
20463;DHT22;10390;53.566;9.980;2023-02-17T16:46:54;24.90;1.00
20463;DHT22;10390;53.566;9.980;2023-02-17T16:49:26;24.80;1.00
20463;DHT22;10390;53.566;9.980;2023-02-17T16:51:57;24.80;1.00
20463;DHT22;10390;53.566;9.980;2023-02-17T16:54:24;24.80;1.00
20463;DHT22;10390;53.566;9.980;2023-02-17T16:56:50;24.70;1.00
20463;DHT22;10390;53.566;9.980;2023-02-17T16:59:19;24.70;1.00
20463;DHT22;10390;53.566;9.980;2023-02-17T17:01:46;24.60;1.00
20463;DHT22;10390;53.566;9.980;2023-02-17T17:04:12;24.60;1.00
20463;DHT22;10390;53.566;9.980;2023-02-17T17:06:44;24.60;1.00
20463;DHT22;10390;53.566;9.980;2023-02-17T17:09:15;24.50;1.00
20463;DHT22;10390;53.566;9.980;2023-02-17T17:11:42;24.50;1.00
20463;DHT22;10390;53.566;9.980;2023-02-17T17:14:07;24.50;1.00
20463;DHT22;10390;53.566;9.980;2023-02-17T17:16:33;24.40;1.00
20463;DHT22;10390;53.566;9.980;2023-02-17T17:19:00;24.30;1.00
20463;DHT22;10390;53.566;9.980;2023-02-17T17:21:26;24.30;1.00
20463;DHT22;10390;53.566;9.980;2023-02-17T17:23:52;24.30;1.00
20463;DHT22;10390;53.566;9.980;2023-02-17T17:26:31;24.30;1.00
20463;DHT22;10390;53.566;9.980;2023-02-17T17:28:57;24.20;1.00
20463;DHT22;10390;53.566;9.980;2023-02-17T17:31:25;24.20;1.00
20463;DHT22;10390;53.566;9.980;2023-02-17T17:33:51;24.20;1.00